首页
METAR-TAF:

METAR-TAF

机场 :

俄斯特拉发, 捷克共和国

纬度: 49-41N, 经度: 018-07E, 海拔: 256米

当前天气观测

该预报发布于17分钟前的07:00 UTC
风速10节,风向南转西南
温度 14°C
湿度 94%
气压 1003 hPa
能見度: 5000
阴天层高于2300英尺
轻雾

METAR: LKMT 200700Z 21010KT 5000 BR OVC023 14/13 Q1003 RERA BECMG 6000 NSW

时间: 09:17 (07:17 UTC)

预报

该预报发布于2小时和17分钟前的05:00 UTC
预报有效从20日的 06点(UTC)到 21日的 12点(UTC)
风速4节,风向东北
能見度: 7000
多云层高于400英尺
短暂存在
从 20日的 07点(UTC)到 20日的 09点(UTC)
能見度: 2500
阴天层高于1500英尺
雨, 轻雾
成为
从 20日的 09点(UTC)到 20日的 10点(UTC)
多云层高于2500英尺
短暂存在
从 20日的 10点(UTC)到 20日的 16点(UTC)
风速14节,风向,有时为24节阵风
能見度: 7000
散云层高于3000英尺, 塔状积云.
阵雨
几率 30% :
短暂存在
从 20日的 12点(UTC)到 20日的 16点(UTC)
能見度: 4000
散云层高于2500英尺, 积雨云.
雷暴, 雨
成为
从 20日的 16点(UTC)到 20日的 18点(UTC)
风速6节,风向西南
能见度10公里或以上
1500米以下无云,无积雨云
短暂存在
从 21日的 00点(UTC)到 21日的 06点(UTC)
能見度: 4000
轻雾

TAF: LKMT 200500Z 2006/2112 05004KT 7000 BKN004 TEMPO 2007/2009 2500 RA BR OVC015 BECMG 2009/2010 BKN025 TEMPO 2010/2016 19014G24KT 7000 SHRA SCT030TCU PROB30 TEMPO 2012/2016 4000 TSRA SCT025CB BECMG 2016/2018 22006KT CAVOK TEMPO 2100/2106 4000 BR

超过4000个机场的气象观测和天气预报(METAR&TAF报告)。

可查询的气象台以黄色和红色小点在地图上表示。

将鼠标移到小点上方,可查看气象台名称。

然后点击查看天气观测和预报。

如需切换地图:点击带黑十字的绿色按钮放大地图;点击带横线的绿色按钮缩小地图;或者点击绿色箭头查看邻近地区的地图。


METAR-TAF: